Time;durP1;ratioP1;P1;durP2;ratioP2;P2;SDS_P1;SDS_P2;PMS_P1;PMS_P2;Temp;Humidity;BMP_temperature;BMP_pressure;BME280_temperature;BME280_humidity;BME280_pressure;Samples;Min_cycle;Max_cycle;Signal;HPM_P1;HPM_P2
2022/06/28 00:00:32;;;;;;;1.84;1.47;;;;;;;22.10;48.78;100937.77;449824;118;922943;-75
2022/06/28 00:01:35;;;;;;;2.84;1.52;;;;;;;22.10;48.90;100935.83;449813;118;922562;-75
2022/06/28 00:02:38;;;;;;;2.34;1.59;;;;;;;22.10;48.86;100935.00;449968;118;922619;-75
2022/06/28 00:03:42;;;;;;;3.84;1.60;;;;;;;22.10;48.86;100940.55;450075;118;922693;-76
2022/06/28 00:04:45;;;;;;;4.89;1.65;;;;;;;22.08;48.91;100931.66;450110;118;922686;-76
2022/06/28 00:05:48;;;;;;;2.73;1.70;;;;;;;22.07;48.63;100930.83;450183;118;922887;-75
2022/06/28 00:06:52;;;;;;;3.68;1.71;;;;;;;22.07;48.71;100929.99;450159;118;922617;-75
2022/06/28 00:07:55;;;;;;;1.67;1.54;;;;;;;22.04;48.67;100926.69;450085;118;922596;-74
2022/06/28 00:08:58;;;;;;;3.03;1.99;;;;;;;22.03;48.69;100925.02;450144;118;922649;-74
2022/06/28 00:10:01;;;;;;;2.98;1.79;;;;;;;22.02;48.67;100917.80;450124;118;922590;-74
2022/06/28 00:11:04;;;;;;;2.41;1.68;;;;;;;22.00;48.54;100928.34;450128;118;922659;-74
2022/06/28 00:12:08;;;;;;;2.39;1.42;;;;;;;21.96;48.50;100916.14;450068;118;922547;-74
2022/06/28 00:13:12;;;;;;;2.79;1.36;;;;;;;21.96;48.56;100918.92;450128;118;922638;-74
2022/06/28 00:16:58;;;;;;;2.11;1.78;;;;;;;21.90;48.76;100924.73;449998;118;922639;-75
2022/06/28 00:18:01;;;;;;;2.39;1.86;;;;;;;21.86;48.90;100910.59;450185;118;922644;-74
2022/06/28 00:19:04;;;;;;;3.22;1.77;;;;;;;21.84;49.01;100918.36;450132;118;922463;-74
2022/06/28 00:20:08;;;;;;;2.49;1.40;;;;;;;21.83;49.14;100919.47;450154;118;922642;-76
2022/06/28 00:21:12;;;;;;;2.96;1.60;;;;;;;21.81;49.24;100923.66;450079;118;922664;-74
2022/06/28 00:22:15;;;;;;;3.41;2.04;;;;;;;21.80;49.30;100921.98;449983;118;930278;-75
2022/06/28 00:23:19;;;;;;;4.08;1.87;;;;;;;21.79;49.32;100925.87;450082;118;930362;-76
2022/06/28 00:24:23;;;;;;;4.25;1.84;;;;;;;21.78;49.39;100924.20;450056;118;923250;-75
2022/06/28 00:25:26;;;;;;;2.78;1.78;;;;;;;21.76;49.50;100918.95;450030;118;922532;-73
2022/06/28 00:26:29;;;;;;;2.85;1.49;;;;;;;21.73;49.51;100919.49;450145;118;922608;-74
2022/06/28 00:27:32;;;;;;;3.92;1.70;;;;;;;21.71;49.54;100915.35;450171;118;922561;-75
2022/06/28 00:28:35;;;;;;;2.33;1.79;;;;;;;21.69;49.59;100915.63;450173;118;923001;-74
2022/06/28 00:29:38;;;;;;;3.51;2.01;;;;;;;21.68;49.69;100913.12;449557;118;922593;-75
2022/06/28 00:30:42;;;;;;;1.84;1.62;;;;;;;21.66;49.73;100918.14;450053;118;922596;-74
2022/06/28 00:31:45;;;;;;;2.47;1.71;;;;;;;21.65;49.70;100920.08;450096;118;930309;-74
2022/06/28 00:32:48;;;;;;;2.86;2.07;;;;;;;21.64;49.74;100918.41;450093;118;922655;-74
2022/06/28 00:33:51;;;;;;;3.81;1.82;;;;;;;21.63;49.78;100920.35;450094;117;927214;-74
2022/06/28 00:34:54;;;;;;;2.37;1.80;;;;;;;21.63;49.79;100916.74;450142;118;922625;-75
2022/06/28 00:36:00;;;;;;;5.53;2.03;;;;;;;21.63;49.73;100911.19;449921;118;922636;-74
2022/06/28 00:37:03;;;;;;;3.31;1.66;;;;;;;21.61;49.73;100910.66;450161;118;922568;-74
2022/06/28 00:38:06;;;;;;;4.79;2.09;;;;;;;21.61;49.81;100911.46;450105;118;922666;-74
2022/06/28 00:39:09;;;;;;;2.60;1.96;;;;;;;21.59;49.83;100908.16;450129;118;922961;-75
2022/06/28 00:40:13;;;;;;;3.40;1.89;;;;;;;21.58;49.83;100912.04;450056;118;922616;-74
2022/06/28 00:41:17;;;;;;;3.25;2.04;;;;;;;21.59;49.89;100912.88;450179;118;922643;-76
2022/06/28 00:42:20;;;;;;;2.87;2.17;;;;;;;21.57;49.90;100909.53;450168;118;922739;-75
2022/06/28 00:43:24;;;;;;;3.12;1.49;;;;;;;21.57;49.91;100918.69;450095;118;922593;-74
2022/06/28 00:44:28;;;;;;;5.42;1.69;;;;;;;21.57;49.98;100912.31;449992;118;930375;-74
2022/06/28 00:45:31;;;;;;;3.14;1.97;;;;;;;21.56;49.82;100916.19;450031;118;923014;-74
2022/06/28 00:46:34;;;;;;;5.23;1.92;;;;;;;21.53;49.77;100912.05;450115;118;923065;-74
2022/06/28 00:47:39;;;;;;;2.60;2.05;;;;;;;21.53;49.76;100913.98;450167;118;923169;-74
2022/06/28 00:48:42;;;;;;;4.21;1.95;;;;;;;21.50;49.75;100909.02;449955;118;922549;-74
2022/06/28 00:49:45;;;;;;;3.12;1.72;;;;;;;21.49;49.91;100907.34;450098;118;922621;-75
2022/06/28 00:50:48;;;;;;;3.27;1.76;;;;;;;21.47;49.86;100912.33;450145;118;922621;-75
2022/06/28 00:51:51;;;;;;;3.99;2.11;;;;;;;21.44;49.85;100908.19;450094;118;922568;-75
2022/06/28 00:53:04;;;;;;;2.34;1.60;;;;;;;21.43;49.79;100914.00;439750;118;922619;-75
2022/06/28 00:54:07;;;;;;;2.45;2.03;;;;;;;21.41;49.91;100913.44;438394;121;922618;-75
2022/06/28 00:55:10;;;;;;;4.03;2.37;;;;;;;21.40;50.04;100920.92;438649;121;923285;-75
2022/06/28 00:56:14;;;;;;;2.55;2.16;;;;;;;21.39;50.14;100913.70;438576;121;931285;-75
2022/06/28 00:57:17;;;;;;;4.91;2.41;;;;;;;21.38;50.23;100914.84;438664;121;930187;-74
2022/06/28 00:58:20;;;;;;;6.06;2.06;;;;;;;21.37;50.28;100910.40;438750;121;922501;-75
2022/06/28 00:59:23;;;;;;;2.31;2.01;;;;;;;21.36;50.32;100905.13;442670;120;922744;-75
2022/06/28 01:00:31;;;;;;;2.88;1.82;;;;;;;21.33;50.35;100908.47;447461;117;922551;-75
2022/06/28 01:01:34;;;;;;;2.93;1.97;;;;;;;21.32;50.40;100906.80;449343;118;922666;-75
2022/06/28 01:02:37;;;;;;;2.22;1.88;;;;;;;21.30;50.52;100914.55;454735;116;922834;-76
2022/06/28 01:03:42;;;;;;;3.34;2.26;;;;;;;21.29;50.65;100915.66;457217;116;922850;-75
2022/06/28 01:04:46;;;;;;;2.23;1.85;;;;;;;21.27;50.58;100915.12;457367;116;923151;-75
2022/06/28 01:05:50;;;;;;;2.14;1.73;;;;;;;21.26;50.61;100911.52;458224;115;922675;-76
2022/06/28 01:06:54;;;;;;;3.77;2.06;;;;;;;21.26;50.65;100910.67;457943;115;922686;-75
2022/06/28 01:07:59;;;;;;;2.68;1.92;;;;;;;21.25;50.64;100914.55;457337;115;922989;-75
2022/06/28 01:09:03;;;;;;;3.08;1.98;;;;;;;21.25;50.63;100911.78;457251;116;923156;-75
2022/06/28 01:10:08;;;;;;;2.64;1.76;;;;;;;21.25;50.66;100900.69;457339;115;930605;-75
2022/06/28 01:11:21;;;;;;;2.52;1.87;;;;;;;21.23;50.57;100910.11;457238;116;923372;-75
2022/06/28 01:12:28;;;;;;;6.59;1.76;;;;;;;21.23;50.59;100908.47;457244;116;922632;-74
2022/06/28 01:13:31;;;;;;;3.21;1.89;;;;;;;21.19;50.68;100909.02;457423;116;922681;-75
2022/06/28 01:14:34;;;;;;;4.22;1.79;;;;;;;21.19;50.69;100902.63;458202;115;922671;-75
2022/06/28 01:15:45;;;;;;;2.52;2.03;;;;;;;21.16;50.64;100912.35;457517;115;922908;-73
2022/06/28 01:16:48;;;;;;;2.86;1.91;;;;;;;21.13;50.70;100909.25;457398;115;922984;-75
2022/06/28 01:17:52;;;;;;;2.86;1.78;;;;;;;21.10;50.77;100905.11;457358;115;922983;-72
2022/06/28 01:19:15;;;;;;;3.31;2.07;;;;;;;21.09;50.91;100910.92;457106;115;930598;-74
2022/06/28 01:20:21;;;;;;;3.62;2.24;;;;;;;21.06;51.09;100911.48;456801;116;922904;-74
2022/06/28 01:21:43;;;;;;;5.75;2.07;;;;;;;21.05;51.12;100907.04;457040;115;922741;-74
2022/06/28 01:22:46;;;;;;;3.31;2.26;;;;;;;21.03;51.20;100917.56;458133;115;923118;-73
2022/06/28 01:23:51;;;;;;;3.36;2.38;;;;;;;21.02;51.28;100916.73;457895;115;930676;-75
2022/06/28 01:24:57;;;;;;;3.96;2.23;;;;;;;21.00;51.33;100916.19;457383;115;922663;-74
2022/06/28 01:26:01;;;;;;;3.79;2.42;;;;;;;20.99;51.37;100914.52;457218;116;922581;-75
2022/06/28 01:27:06;;;;;;;2.93;2.09;;;;;;;20.98;51.34;100912.02;457205;115;930276;-75
2022/06/28 01:28:09;;;;;;;4.62;2.72;;;;;;;20.95;51.32;100915.35;458212;115;923293;-74
2022/06/28 01:29:14;;;;;;;3.22;2.73;;;;;;;20.94;51.37;100911.75;458123;115;923178;-75
2022/06/28 01:30:20;;;;;;;3.58;2.36;;;;;;;20.94;51.41;100908.97;455256;116;930578;-75
2022/06/28 01:31:33;;;;;;;3.77;1.94;;;;;;;20.93;51.47;100914.78;456551;115;922533;-75
2022/06/28 01:32:37;;;;;;;3.19;2.64;;;;;;;20.94;51.50;100916.45;457338;115;922613;-76
2022/06/28 01:33:43;;;;;;;3.67;2.41;;;;;;;20.92;51.42;100919.49;455680;115;922978;-76
2022/06/28 01:34:47;;;;;;;4.09;2.57;;;;;;;20.91;51.40;100916.98;449013;117;923033;-74
2022/06/28 01:35:51;;;;;;;2.54;2.01;;;;;;;20.85;51.59;100918.92;449132;117;922732;-74
2022/06/28 01:36:55;;;;;;;3.56;3.19;;;;;;;20.85;51.59;100918.92;449144;117;922531;-75
2022/06/28 01:38:00;;;;;;;6.36;2.91;;;;;;;20.83;51.63;100918.37;451673;117;930816;-74
2022/06/28 01:39:04;;;;;;;2.90;2.61;;;;;;;20.81;51.80;100915.04;451606;117;923044;-74
2022/06/28 01:40:09;;;;;;;3.79;2.54;;;;;;;20.79;51.94;100925.55;449073;117;922619;-74
2022/06/28 01:42:35;;;;;;;5.69;2.97;;;;;;;20.78;52.16;100913.63;451530;117;930707;-74
2022/06/28 01:43:39;;;;;;;5.83;3.01;;;;;;;20.78;52.29;100918.37;451477;117;922667;-75
2022/06/28 01:44:45;;;;;;;3.80;2.91;;;;;;;20.79;52.27;100929.16;449154;117;930503;-74
2022/06/28 01:45:54;;;;;;;3.99;2.92;;;;;;;20.79;52.25;100917.24;445774;117;923050;-75
2022/06/28 01:46:58;;;;;;;4.58;2.78;;;;;;;20.79;52.34;100925.55;449030;117;922644;-74
2022/06/28 01:48:04;;;;;;;5.37;2.83;;;;;;;20.78;52.33;100923.92;449763;117;923148;-74
2022/06/28 01:49:09;;;;;;;5.52;3.89;;;;;;;20.77;52.34;100923.08;455182;116;922487;-75
2022/06/28 01:50:13;;;;;;;5.33;2.60;;;;;;;20.76;52.36;100929.72;457187;116;923026;-75
2022/06/28 01:51:18;;;;;;;5.59;3.34;;;;;;;20.77;52.35;100927.79;457194;116;922596;-74
2022/06/28 01:52:22;;;;;;;5.59;3.36;;;;;;;20.77;52.39;100933.33;457321;116;922555;-75
2022/06/28 01:53:25;;;;;;;4.67;3.26;;;;;;;20.77;52.21;100925.02;457315;116;922517;-74
2022/06/28 01:54:30;;;;;;;4.68;3.23;;;;;;;20.76;52.19;100926.95;456221;116;930672;-74
2022/06/28 01:55:33;;;;;;;4.71;3.30;;;;;;;20.76;52.15;100924.18;457352;116;922632;-74
2022/06/28 01:56:37;;;;;;;6.36;3.39;;;;;;;20.76;52.13;100923.34;457345;115;922582;-74
2022/06/28 01:57:44;;;;;;;5.24;3.09;;;;;;;20.77;52.16;100927.79;457300;115;922604;-74
2022/06/28 01:58:48;;;;;;;4.89;2.98;;;;;;;20.74;52.19;100920.00;457342;115;922521;-75
2022/06/28 01:59:51;;;;;;;3.74;3.27;;;;;;;20.74;52.23;100929.16;457465;116;922614;-74
2022/06/28 02:00:57;;;;;;;4.67;3.12;;;;;;;20.74;52.30;100933.86;452595;115;923286;-75
2022/06/28 02:02:00;;;;;;;4.87;3.67;;;;;;;20.73;52.38;100932.22;458142;115;922591;-75
2022/06/28 02:03:06;;;;;;;5.86;3.06;;;;;;;20.73;52.46;100937.77;457297;115;922597;-74
2022/06/28 02:04:29;;;;;;;3.92;3.52;;;;;;;20.72;52.54;100930.55;456978;115;922608;-75
2022/06/28 02:05:35;;;;;;;4.84;3.59;;;;;;;20.71;52.60;100926.95;457008;115;922718;-75
2022/06/28 02:06:38;;;;;;;4.34;3.36;;;;;;;20.70;52.67;100928.05;457301;116;922579;-75
2022/06/28 02:07:47;;;;;;;5.54;4.49;;;;;;;20.71;52.68;100926.11;457183;115;930784;-74
2022/06/28 02:08:50;;;;;;;4.98;3.48;;;;;;;20.71;52.71;100923.34;457208;116;922524;-74
2022/06/28 02:09:56;;;;;;;5.95;3.91;;;;;;;20.70;52.64;100928.05;457345;115;922951;-74
2022/06/28 02:11:00;;;;;;;6.04;4.17;;;;;;;20.70;52.61;100928.05;457277;115;922590;-75
2022/06/28 02:12:08;;;;;;;4.79;3.73;;;;;;;20.69;52.68;100922.77;456877;115;930486;-74
2022/06/28 02:13:13;;;;;;;6.94;3.78;;;;;;;20.68;52.76;100921.93;457153;115;922612;-74
2022/06/28 02:14:16;;;;;;;4.95;4.16;;;;;;;20.67;52.82;100922.23;457392;116;923198;-75
2022/06/28 02:15:19;;;;;;;6.49;4.43;;;;;;;20.66;52.89;100926.94;457397;116;922558;-74
2022/06/28 02:16:23;;;;;;;6.68;4.21;;;;;;;20.66;52.99;100926.10;457300;115;923231;-74
2022/06/28 02:17:27;;;;;;;5.73;3.87;;;;;;;20.64;52.95;100931.91;458178;115;922638;-74
2022/06/28 02:18:31;;;;;;;4.92;4.32;;;;;;;20.63;52.98;100927.46;458100;115;930644;-74
2022/06/28 02:19:36;;;;;;;5.44;4.34;;;;;;;20.62;53.05;100931.33;457173;116;923035;-74
2022/06/28 02:20:40;;;;;;;7.51;4.69;;;;;;;20.62;53.03;100922.22;458068;115;923015;-74
2022/06/28 02:21:44;;;;;;;5.00;3.98;;;;;;;20.62;53.03;100925.80;458269;115;922978;-75
2022/06/28 02:22:47;;;;;;;7.49;4.71;;;;;;;20.63;52.98;100924.69;448050;118;923001;-75
2022/06/28 02:23:51;;;;;;;8.48;4.47;;;;;;;20.62;52.93;100920.25;441012;117;922650;-75
2022/06/28 02:24:54;;;;;;;6.81;4.57;;;;;;;20.64;52.87;100923.59;450875;116;922484;-75
2022/06/28 02:25:57;;;;;;;6.39;4.31;;;;;;;20.65;52.87;100921.66;458392;115;930601;-75
2022/06/28 02:27:00;;;;;;;6.90;4.74;;;;;;;20.66;52.91;100924.16;458412;115;922571;-75
2022/06/28 02:28:03;;;;;;;7.51;4.85;;;;;;;20.65;52.90;100921.66;457684;116;923367;-75
2022/06/28 02:29:07;;;;;;;6.12;5.09;;;;;;;20.65;52.90;100921.66;457637;115;922428;-75
2022/06/28 02:30:12;;;;;;;5.19;4.59;;;;;;;20.65;52.92;100921.66;447400;115;922621;-76
2022/06/28 02:31:15;;;;;;;5.99;5.36;;;;;;;20.65;52.81;100922.49;447890;116;922941;-75
2022/06/28 02:32:19;;;;;;;8.22;5.09;;;;;;;20.65;52.75;100927.20;456780;116;922984;-75
2022/06/28 02:33:22;;;;;;;7.33;5.22;;;;;;;20.66;52.72;100921.39;456752;116;922842;-76
2022/06/28 02:40:28;;;;;;;8.62;5.62;;;;;;;20.65;52.60;100918.89;457499;116;922545;-75
2022/06/28 02:40:48;;;;;;;6.97;5.72;;;;;;;20.65;52.64;100918.89;441926;115;922807;-75
2022/06/28 02:41:51;;;;;;;10.21;5.72;;;;;;;20.64;52.65;100917.22;457816;116;922752;-76
2022/06/28 02:42:57;;;;;;;11.54;5.31;;;;;;;20.64;52.72;100923.59;457812;115;922354;-77
2022/06/28 02:44:00;;;;;;;7.11;5.29;;;;;;;20.62;52.80;100914.71;457675;115;922520;-77
2022/06/28 02:45:03;;;;;;;8.81;6.28;;;;;;;20.64;52.91;100928.30;455024;115;922509;-77
2022/06/28 02:46:07;;;;;;;6.18;5.28;;;;;;;20.64;53.00;100923.59;452339;117;922487;-77
2022/06/28 02:47:10;;;;;;;9.40;5.29;;;;;;;20.66;53.03;100924.16;452377;117;930407;-76
2022/06/28 02:48:13;;;;;;;7.81;5.27;;;;;;;20.66;53.12;100920.55;452420;117;922584;-77
2022/06/28 02:49:17;;;;;;;10.61;6.41;;;;;;;20.67;53.17;100922.23;452331;117;922301;-78
2022/06/28 02:50:21;;;;;;;6.09;5.39;;;;;;;20.67;53.19;100922.23;452307;117;922244;-76
2022/06/28 02:51:25;;;;;;;7.65;5.32;;;;;;;20.67;53.25;100923.06;455148;116;922618;-77
2022/06/28 02:52:28;;;;;;;7.89;5.41;;;;;;;20.68;53.31;100921.09;457775;115;930320;-75
2022/06/28 02:53:31;;;;;;;8.96;5.29;;;;;;;20.67;53.40;100927.77;457941;116;922539;-76
2022/06/28 02:54:34;;;;;;;8.41;5.80;;;;;;;20.67;53.47;100917.52;457975;115;922680;-75
2022/06/28 02:55:38;;;;;;;9.26;5.56;;;;;;;20.69;53.53;100920.00;457999;115;922302;-77
2022/06/28 02:56:42;;;;;;;6.50;4.83;;;;;;;20.70;53.54;100913.35;457963;116;922348;-76
2022/06/28 02:57:45;;;;;;;6.69;5.26;;;;;;;20.71;53.56;100918.63;457911;115;922487;-76
2022/06/28 02:58:48;;;;;;;8.03;5.57;;;;;;;20.74;53.54;100914.46;457886;115;922481;-75
2022/06/28 02:59:51;;;;;;;7.64;5.07;;;;;;;20.76;53.64;100917.80;457885;115;930274;-74
2022/06/28 03:00:54;;;;;;;9.16;5.74;;;;;;;20.77;53.77;100922.25;457596;115;922600;-74
2022/06/28 03:01:58;;;;;;;8.82;6.19;;;;;;;20.78;53.86;100919.18;451022;117;922405;-75
2022/06/28 03:03:01;;;;;;;6.90;5.36;;;;;;;20.77;53.87;100914.77;449615;116;923087;-77
2022/06/28 03:04:04;;;;;;;8.18;5.59;;;;;;;20.79;53.99;100920.02;457283;116;922439;-75
2022/06/28 03:05:09;;;;;;;7.31;5.74;;;;;;;20.80;53.92;100916.14;457319;116;922487;-75
2022/06/28 03:06:13;;;;;;;7.83;5.43;;;;;;;20.80;53.92;100916.14;457079;116;922708;-76
2022/06/28 03:07:16;;;;;;;8.87;4.97;;;;;;;20.80;53.96;100913.37;457392;116;922284;-76
2022/06/28 03:08:19;;;;;;;8.04;5.24;;;;;;;20.82;53.93;100913.94;457216;116;922447;-76
2022/06/28 03:09:22;;;;;;;7.53;4.97;;;;;;;20.81;53.88;100907.56;457230;116;922761;-76
2022/06/28 03:10:25;;;;;;;8.87;4.66;;;;;;;20.83;53.88;100904.52;457243;116;922767;-75
2022/06/28 03:11:29;;;;;;;6.14;4.91;;;;;;;20.85;53.86;100902.29;457241;116;922394;-76
2022/06/28 03:12:32;;;;;;;7.73;5.00;;;;;;;20.88;53.88;100903.69;457249;116;922735;-76
2022/06/28 03:13:35;;;;;;;6.63;4.65;;;;;;;20.89;53.87;100902.59;457194;116;922358;-77
2022/06/28 03:14:38;;;;;;;5.72;4.26;;;;;;;20.90;53.86;100902.30;457176;116;930399;-78
2022/06/28 03:15:42;;;;;;;6.91;4.66;;;;;;;20.92;53.93;100907.57;457166;116;922515;-75
2022/06/28 03:16:45;;;;;;;8.88;5.11;;;;;;;20.93;53.82;100907.30;457097;116;922680;-76
2022/06/28 03:17:48;;;;;;;5.27;4.49;;;;;;;20.93;53.77;100910.08;457256;116;922526;-76
2022/06/28 03:18:52;;;;;;;7.12;4.92;;;;;;;20.94;53.88;100905.37;457215;116;922897;-76
2022/06/28 03:19:55;;;;;;;10.48;4.80;;;;;;;20.97;53.83;100905.64;457357;116;922431;-76
2022/06/28 03:20:58;;;;;;;6.81;4.50;;;;;;;20.98;53.79;100900.92;457270;116;922792;-78
2022/06/28 03:22:01;;;;;;;6.14;5.22;;;;;;;21.00;53.81;100910.65;457211;116;922378;-77
2022/06/28 03:23:05;;;;;;;9.29;5.31;;;;;;;21.01;53.78;100900.36;457178;116;922692;-77
2022/06/28 03:24:10;;;;;;;7.65;4.86;;;;;;;21.02;53.82;100908.41;456999;116;922625;-77
2022/06/28 03:25:13;;;;;;;6.30;5.01;;;;;;;21.03;53.75;100904.53;457059;116;922633;-77
2022/06/28 03:26:17;;;;;;;7.26;4.95;;;;;;;21.06;53.78;100908.71;446711;118;922681;-73
2022/06/28 03:27:20;;;;;;;8.10;6.01;;;;;;;21.08;53.87;100903.70;447201;116;922737;-75
2022/06/28 03:28:23;;;;;;;7.75;5.39;;;;;;;21.08;53.90;100898.99;456810;116;922611;-74
2022/06/28 03:29:28;;;;;;;9.28;6.36;;;;;;;21.10;53.81;100896.78;456201;116;922878;-75
2022/06/28 03:30:32;;;;;;;7.92;5.99;;;;;;;21.12;53.74;100902.87;454790;116;922974;-75
2022/06/28 03:31:35;;;;;;;7.84;6.04;;;;;;;21.14;53.62;100899.83;456649;116;922911;-75
2022/06/28 03:32:40;;;;;;;7.24;6.02;;;;;;;21.16;53.53;100903.20;456633;116;922816;-77
2022/06/28 03:33:43;;;;;;;7.87;6.51;;;;;;;21.18;53.39;100901.80;456634;115;923034;-76
2022/06/28 03:34:46;;;;;;;9.92;6.62;;;;;;;21.19;53.28;100894.31;456683;116;922536;-74
2022/06/28 03:35:51;;;;;;;8.03;6.22;;;;;;;21.21;53.22;100897.64;456508;115;922457;-75
2022/06/28 03:36:55;;;;;;;8.54;6.53;;;;;;;21.23;53.19;100898.18;456611;115;922609;-75
2022/06/28 03:38:06;;;;;;;10.79;6.07;;;;;;;21.25;53.23;100893.20;450227;116;922693;-73
2022/06/28 03:39:25;;;;;;;7.57;6.24;;;;;;;21.28;53.25;100900.95;438486;121;922906;-73
2022/06/28 03:40:30;;;;;;;9.58;6.71;;;;;;;21.30;53.13;100898.74;436462;121;922710;-76
2022/06/28 03:41:33;;;;;;;10.24;7.42;;;;;;;21.32;53.04;100898.47;430871;121;923475;-74
2022/06/28 03:42:38;;;;;;;13.14;7.83;;;;;;;21.34;52.97;100904.55;439136;120;922580;-77
2022/06/28 03:43:41;;;;;;;8.98;6.06;;;;;;;21.36;52.89;100896.80;447739;118;922566;-76
2022/06/28 03:44:44;;;;;;;8.47;6.68;;;;;;;21.36;52.71;100896.80;439866;120;930546;-75
2022/06/28 03:45:47;;;;;;;11.54;7.12;;;;;;;21.37;52.59;100895.70;434382;122;922622;-75
2022/06/28 03:46:55;;;;;;;7.89;7.13;;;;;;;21.38;52.52;100889.88;430321;120;922893;-76
2022/06/28 03:48:15;;;;;;;11.80;7.30;;;;;;;21.39;52.53;100891.52;427029;124;922725;-75
2022/06/28 03:49:25;;;;;;;9.88;6.88;;;;;;;21.51;52.57;100899.55;473075;110;947276;-74
2022/06/28 03:50:30;;;;;;;11.42;7.43;;;;;;;21.42;52.69;100895.69;457499;115;923332;-75
2022/06/28 03:51:35;;;;;;;12.97;7.27;;;;;;;21.44;52.65;100893.48;456559;115;922693;-74
2022/06/28 03:52:51;;;;;;;8.07;6.67;;;;;;;21.46;52.67;100894.01;443157;119;922949;-75
2022/06/28 03:54:04;;;;;;;9.01;6.32;;;;;;;21.48;52.52;100897.34;443123;119;922788;-75
2022/06/28 03:55:11;;;;;;;8.78;6.51;;;;;;;21.49;52.32;100890.69;454805;115;922732;-74
2022/06/28 03:56:17;;;;;;;7.87;7.05;;;;;;;21.49;52.37;100891.53;448799;118;922583;-76
2022/06/28 03:57:21;;;;;;;9.94;6.58;;;;;;;21.51;52.58;100894.00;457556;116;922778;-77
2022/06/28 03:58:24;;;;;;;7.92;6.56;;;;;;;21.51;52.65;100892.06;457627;115;922976;-77
2022/06/28 03:59:27;;;;;;;10.06;6.92;;;;;;;21.53;52.57;100891.79;457637;114;923028;-75
2022/06/28 04:00:31;;;;;;;8.48;6.39;;;;;;;21.54;52.50;100891.52;457480;115;922825;-74
2022/06/28 04:01:35;;;;;;;9.92;6.70;;;;;;;21.56;52.45;100892.05;457534;116;924166;-74
2022/06/28 04:02:38;;;;;;;10.84;6.66;;;;;;;21.59;52.49;100890.67;456367;115;930438;-75
2022/06/28 04:03:43;;;;;;;8.06;6.57;;;;;;;21.61;52.55;100888.45;455715;116;922612;-74
2022/06/28 04:04:47;;;;;;;10.49;7.30;;;;;;;21.63;52.54;100894.55;455798;116;922747;-75
2022/06/28 04:05:50;;;;;;;9.03;7.75;;;;;;;21.66;52.54;100890.39;455819;116;930391;-76
2022/06/28 04:06:54;;;;;;;8.61;7.70;;;;;;;21.69;52.53;100892.59;455802;116;922824;-75
2022/06/28 04:07:57;;;;;;;11.03;6.89;;;;;;;21.71;52.54;100893.15;455870;116;923377;-75
2022/06/28 04:09:02;;;;;;;7.88;6.60;;;;;;;21.74;52.61;100885.08;452463;116;923185;-75
2022/06/28 04:10:15;;;;;;;8.34;6.92;;;;;;;21.76;52.70;100890.36;455733;116;922615;-75
2022/06/28 04:11:20;;;;;;;8.59;7.01;;;;;;;21.78;52.74;100888.11;455766;116;922604;-75
2022/06/28 04:12:23;;;;;;;8.58;7.27;;;;;;;21.80;52.76;100886.73;455879;116;922583;-76
2022/06/28 04:13:27;;;;;;;11.06;8.21;;;;;;;21.83;52.78;100888.13;446441;118;922559;-76
2022/06/28 04:14:30;;;;;;;11.66;7.79;;;;;;;21.86;52.78;100891.16;446829;116;922647;-76
2022/06/28 04:15:35;;;;;;;8.71;7.04;;;;;;;21.88;52.72;100888.95;446540;118;923571;-75
2022/06/28 04:16:43;;;;;;;8.06;7.19;;;;;;;21.90;52.67;100895.02;446926;116;923217;-75
2022/06/28 04:17:48;;;;;;;8.41;6.91;;;;;;;21.94;52.80;100898.09;455625;116;922648;-75
2022/06/28 04:19:02;;;;;;;8.44;6.58;;;;;;;21.95;52.69;100891.43;452514;116;922802;-75
2022/06/28 04:20:08;;;;;;;9.34;6.99;;;;;;;21.97;52.71;100892.83;455022;116;923217;-74
2022/06/28 04:21:15;;;;;;;9.78;7.38;;;;;;;21.99;52.68;100889.77;454371;116;922562;-75
2022/06/28 04:22:18;;;;;;;8.60;6.62;;;;;;;22.01;52.66;100888.36;455636;116;923386;-75
2022/06/28 04:23:21;;;;;;;12.29;5.29;;;;;;;22.04;52.41;100893.36;446478;118;922639;-75
2022/06/28 04:24:24;;;;;;;7.78;5.11;;;;;;;22.07;52.09;100896.67;446788;116;923291;-76
2022/06/28 04:25:35;;;;;;;6.12;4.39;;;;;;;22.08;51.75;100893.62;455568;116;922548;-75
2022/06/28 04:26:40;;;;;;;6.56;4.23;;;;;;;22.12;51.44;100893.87;454542;116;922689;-75
2022/06/28 04:27:45;;;;;;;6.46;4.13;;;;;;;22.14;51.15;100898.04;455607;116;922852;-75
2022/06/28 04:28:48;;;;;;;5.83;4.09;;;;;;;22.17;50.92;100893.84;446549;119;922716;-75
2022/06/28 04:29:53;;;;;;;6.83;3.64;;;;;;;22.18;50.58;100887.18;447734;116;923284;-75
2022/06/28 04:31:04;;;;;;;4.38;3.64;;;;;;;22.20;50.35;100891.35;456579;115;922891;-75
2022/06/28 04:32:08;;;;;;;5.68;3.51;;;;;;;22.23;50.06;100890.77;457468;116;923254;-76
2022/06/28 04:33:11;;;;;;;3.92;3.21;;;;;;;22.26;49.85;100886.60;457560;116;922563;-76
2022/06/28 04:34:14;;;;;;;5.27;4.25;;;;;;;22.27;49.54;100888.27;457497;113;922882;-75
2022/06/28 04:35:19;;;;;;;4.88;4.13;;;;;;;22.29;49.26;100891.58;457383;116;923089;-75
2022/06/28 04:36:23;;;;;;;6.09;3.81;;;;;;;22.32;49.24;100897.41;457461;115;922630;-74
2022/06/28 04:37:26;;;;;;;5.84;3.82;;;;;;;22.34;49.00;100897.94;457347;115;930427;-75
2022/06/28 04:38:30;;;;;;;4.59;3.67;;;;;;;22.36;48.89;100898.50;457466;116;922680;-75
2022/06/28 04:39:46;;;;;;;7.21;4.67;;;;;;;22.37;48.64;100897.39;457299;114;923272;-75
2022/06/28 04:40:51;;;;;;;5.56;3.98;;;;;;;22.40;48.49;100893.19;456731;115;922725;-75
2022/06/28 04:41:56;;;;;;;6.26;4.32;;;;;;;22.40;48.43;100885.69;454114;116;922626;-75
2022/06/28 04:43:02;;;;;;;5.00;4.33;;;;;;;22.44;48.26;100897.05;457342;116;922736;-76
2022/06/28 04:44:05;;;;;;;5.74;4.99;;;;;;;22.45;48.18;100893.99;457425;113;922602;-75
2022/06/28 04:45:10;;;;;;;7.11;4.99;;;;;;;22.49;48.02;100887.88;457375;116;922502;-75
2022/06/28 04:46:15;;;;;;;7.57;4.95;;;;;;;22.51;47.91;100885.63;456207;115;923003;-76
2022/06/28 04:47:19;;;;;;;7.85;5.22;;;;;;;22.53;47.93;100889.80;450412;117;922643;-75
2022/06/28 04:48:23;;;;;;;9.38;5.36;;;;;;;22.57;47.91;100890.87;450946;116;922786;-75
2022/06/28 04:49:26;;;;;;;7.90;4.80;;;;;;;22.59;47.86;100891.43;457473;114;930588;-76
2022/06/28 04:50:31;;;;;;;7.05;4.96;;;;;;;22.62;47.80;100887.23;457497;115;922719;-74
2022/06/28 04:51:34;;;;;;;5.99;5.05;;;;;;;22.64;47.80;100891.40;457559;116;922897;-75
2022/06/28 04:52:38;;;;;;;8.11;4.96;;;;;;;22.67;47.75;100893.59;457585;116;930480;-74
2022/06/28 04:53:44;;;;;;;6.72;5.80;;;;;;;22.69;47.76;100898.87;457508;115;922817;-75
2022/06/28 04:54:47;;;;;;;9.98;5.73;;;;;;;22.71;47.62;100891.08;457414;114;922687;-74
2022/06/28 04:55:57;;;;;;;8.33;6.28;;;;;;;22.73;47.45;100888.86;457528;116;922615;-75
2022/06/28 04:57:00;;;;;;;7.45;6.42;;;;;;;22.74;47.20;100893.30;457643;116;922609;-75
2022/06/28 04:58:04;;;;;;;7.23;5.51;;;;;;;22.76;47.09;100888.30;451519;117;922618;-75
2022/06/28 04:59:07;;;;;;;8.13;6.59;;;;;;;22.77;46.91;100890.77;451733;115;922766;-75
2022/06/28 05:00:14;;;;;;;8.11;6.03;;;;;;;22.79;46.86;100888.55;457402;116;922625;-76
2022/06/28 05:01:19;;;;;;;7.23;6.22;;;;;;;22.81;46.84;100886.31;457153;115;922618;-75
2022/06/28 05:02:23;;;;;;;8.89;6.74;;;;;;;22.83;46.78;100884.05;456791;116;922867;-74
2022/06/28 05:03:27;;;;;;;8.84;6.85;;;;;;;22.85;46.55;100886.56;455825;116;922573;-75
2022/06/28 05:04:32;;;;;;;7.91;6.45;;;;;;;22.88;46.43;100882.38;455711;116;922632;-76
2022/06/28 05:05:40;;;;;;;9.17;7.22;;;;;;;22.91;46.44;100884.57;454481;116;922636;-75
2022/06/28 05:06:43;;;;;;;8.22;7.42;;;;;;;22.93;46.34;100885.95;455888;116;922656;-75